Time;durP1;ratioP1;P1;durP2;ratioP2;P2;SDS_P1;SDS_P2;PMS_P1;PMS_P2;Temp;Humidity;BMP_temperature;BMP_pressure;BME280_temperature;BME280_humidity;BME280_pressure;Samples;Min_cycle;Max_cycle;Signal;HPM_P1;HPM_P2
2024/02/26 00:00:49;;;;;;;;;;;;;;;18.69;62.25;100473.91;7388850;19;1552;-77
2024/02/26 00:03:20;;;;;;;;;;;;;;;18.71;62.25;100478.28;7392083;19;1041;-77
2024/02/26 00:05:48;;;;;;;;;;;;;;;18.71;62.28;100478.28;7390056;19;1854;-77
2024/02/26 00:08:17;;;;;;;;;;;;;;;18.75;62.18;100463.63;7390494;19;1500;-78
2024/02/26 00:10:45;;;;;;;;;;;;;;;18.67;62.46;100464.31;7390827;19;1520;-77
2024/02/26 00:13:14;;;;;;;;;;;;;;;18.59;62.51;100458.81;7390721;19;1562;-77
2024/02/26 00:15:42;;;;;;;;;;;;;;;18.64;62.44;100481.53;7392002;19;1846;-77
2024/02/26 00:18:10;;;;;;;;;;;;;;;18.64;62.34;100456.56;7389459;19;1417;-77
2024/02/26 00:20:43;;;;;;;;;;;;;;;18.68;62.31;100464.19;7387566;19;1575;-77
2024/02/26 00:23:11;;;;;;;;;;;;;;;18.72;62.27;100463.88;7389392;19;1482;-77
2024/02/26 00:25:40;;;;;;;;;;;;;;;18.61;62.35;100446.97;7388210;19;1840;-76
2024/02/26 00:28:08;;;;;;;;;;;;;;;18.64;62.24;100464.59;7394439;19;1598;-77
2024/02/26 00:30:36;;;;;;;;;;;;;;;18.67;62.15;100451.78;7395416;19;1480;-77
2024/02/26 00:33:05;;;;;;;;;;;;;;;18.58;62.18;100471.38;7393647;19;1294;-77
2024/02/26 00:35:33;;;;;;;;;;;;;;;18.52;62.63;100461.19;7386473;19;1578;-77
2024/02/26 00:38:04;;;;;;;;;;;;;;;18.52;62.37;100457.69;7394790;19;1813;-77
2024/02/26 00:40:32;;;;;;;;;;;;;;;18.58;62.45;100452.63;7396221;19;1724;-76
2024/02/26 00:43:01;;;;;;;;;;;;;;;18.54;62.27;100429.78;7395546;19;1265;-77
2024/02/26 00:45:31;;;;;;;;;;;;;;;18.51;62.44;100450.66;7396588;19;1862;-77
2024/02/26 00:48:04;;;;;;;;;;;;;;;18.55;62.49;100441.34;7396651;19;998;-77
2024/02/26 00:50:33;;;;;;;;;;;;;;;18.51;62.65;100443.47;7395855;19;1922;-77
2024/02/26 00:53:04;;;;;;;;;;;;;;;18.58;62.37;100431.22;7392519;19;1445;-76
2024/02/26 00:55:32;;;;;;;;;;;;;;;18.56;62.39;100435.88;7395502;19;1215;-77
2024/02/26 00:58:01;;;;;;;;;;;;;;;18.61;62.36;100433.59;7396770;19;1131;-77
2024/02/26 01:00:29;;;;;;;;;;;;;;;18.59;62.26;100427.53;7395899;19;1542;-77
2024/02/26 01:02:59;;;;;;;;;;;;;;;18.60;62.29;100437.28;7395596;19;1820;-76
2024/02/26 01:05:27;;;;;;;;;;;;;;;18.62;62.13;100435.28;7395647;19;1492;-77
2024/02/26 01:07:56;;;;;;;;;;;;;;;18.57;61.90;100424.16;7392134;19;1991;-77
2024/02/26 01:10:26;;;;;;;;;;;;;;;18.56;62.23;100422.47;7392244;19;1465;-77
2024/02/26 01:12:55;;;;;;;;;;;;;;;18.59;61.95;100411.47;7393165;19;1679;-77
2024/02/26 01:15:23;;;;;;;;;;;;;;;18.61;62.07;100420.19;7395066;19;1371;-77
2024/02/26 01:17:52;;;;;;;;;;;;;;;18.58;62.25;100420.50;7395766;19;1829;-77
2024/02/26 01:20:20;;;;;;;;;;;;;;;18.59;62.33;100416.81;7394658;19;1849;-77
2024/02/26 01:22:48;;;;;;;;;;;;;;;18.39;63.04;100421.31;7395164;19;1719;-77
2024/02/26 01:25:18;;;;;;;;;;;;;;;18.44;62.92;100412.88;7393824;19;1718;-77
2024/02/26 01:27:49;;;;;;;;;;;;;;;18.52;62.85;100410.31;7391541;19;1839;-77
2024/02/26 01:30:17;;;;;;;;;;;;;;;18.53;62.75;100421.91;7393528;19;1918;-78
2024/02/26 01:32:46;;;;;;;;;;;;;;;18.53;62.73;100422.75;7394296;19;1741;-77
2024/02/26 01:35:14;;;;;;;;;;;;;;;18.45;63.03;100415.41;7382681;19;1507;-77
2024/02/26 01:37:42;;;;;;;;;;;;;;;18.36;63.08;100404.69;7393940;19;1476;-77
2024/02/26 01:40:12;;;;;;;;;;;;;;;18.43;63.32;100424.56;7391001;19;1836;-77
2024/02/26 01:42:41;;;;;;;;;;;;;;;18.36;63.57;100418.06;7394048;19;1713;-76
2024/02/26 01:45:15;;;;;;;;;;;;;;;18.47;63.17;100423.31;7393684;19;1049;-77
2024/02/26 01:47:43;;;;;;;;;;;;;;;18.57;62.91;100416.13;7391345;19;2326;-76
2024/02/26 01:50:12;;;;;;;;;;;;;;;18.56;62.84;100413.56;7391736;19;1785;-76
2024/02/26 01:52:40;;;;;;;;;;;;;;;18.43;63.38;100416.53;7393693;19;1376;-77
2024/02/26 01:55:10;;;;;;;;;;;;;;;18.43;63.32;100387.94;7393570;19;1296;-76
2024/02/26 01:57:38;;;;;;;;;;;;;;;18.41;63.29;100445.28;7392966;19;1442;-77
2024/02/26 02:00:07;;;;;;;;;;;;;;;18.55;63.11;100410.06;7392905;19;1472;-76
2024/02/26 02:02:39;;;;;;;;;;;;;;;18.58;62.81;100409.78;7392592;19;1324;-77
2024/02/26 02:05:09;;;;;;;;;;;;;;;18.52;62.91;100394.25;7394312;19;1379;-77
2024/02/26 02:07:38;;;;;;;;;;;;;;;18.43;63.31;100405.84;7391883;19;1862;-76
2024/02/26 02:10:07;;;;;;;;;;;;;;;18.35;63.30;100392.31;7392597;19;1827;-76
2024/02/26 02:12:38;;;;;;;;;;;;;;;18.74;62.65;100408.34;7392694;19;1769;-77
2024/02/26 02:15:07;;;;;;;;;;;;;;;19.27;61.13;100399.81;7393337;19;1393;-77
2024/02/26 02:17:35;;;;;;;;;;;;;;;19.59;60.21;100404.75;7396351;19;1538;-77
2024/02/26 02:20:10;;;;;;;;;;;;;;;19.50;60.53;100402.13;7395399;19;1895;-77
2024/02/26 02:22:41;;;;;;;;;;;;;;;19.69;60.15;100399.34;7394331;19;1567;-77
2024/02/26 02:25:10;;;;;;;;;;;;;;;19.86;59.72;100403.94;7394619;19;1832;-77
2024/02/26 02:27:38;;;;;;;;;;;;;;;19.85;59.74;100396.88;7393745;19;1871;-77
2024/02/26 02:30:08;;;;;;;;;;;;;;;19.93;59.60;100406.88;7395529;19;1417;-77
2024/02/26 02:32:36;;;;;;;;;;;;;;;19.98;59.55;100393.03;7394432;19;1877;-77
2024/02/26 02:35:05;;;;;;;;;;;;;;;20.01;59.38;100404.28;7378814;19;1582;-77
2024/02/26 02:37:33;;;;;;;;;;;;;;;20.04;59.33;100403.16;7393534;19;1695;-77
2024/02/26 02:40:05;;;;;;;;;;;;;;;20.04;59.39;100395.09;7393293;19;1520;-77
2024/02/26 02:42:34;;;;;;;;;;;;;;;19.99;59.55;100408.13;7392876;19;1952;-77
2024/02/26 02:45:03;;;;;;;;;;;;;;;20.09;59.12;100406.22;7394661;19;1232;-76
2024/02/26 02:47:31;;;;;;;;;;;;;;;19.99;59.46;100389.31;7391896;19;1868;-77
2024/02/26 02:49:59;;;;;;;;;;;;;;;20.07;59.25;100402.81;7391622;19;1555;-74
2024/02/26 02:52:27;;;;;;;;;;;;;;;20.15;59.20;100400.22;7392820;19;1076;-76
2024/02/26 02:54:56;;;;;;;;;;;;;;;20.18;59.21;100424.09;7391244;19;1770;-76
2024/02/26 02:57:27;;;;;;;;;;;;;;;20.20;59.15;100411.38;7392410;19;1389;-76
2024/02/26 02:59:55;;;;;;;;;;;;;;;20.23;59.07;100412.91;7393419;19;1598;-77
2024/02/26 03:02:24;;;;;;;;;;;;;;;20.21;58.98;100415.75;7392240;19;1322;-77
2024/02/26 03:04:53;;;;;;;;;;;;;;;20.23;58.97;100420.94;7392231;19;1218;-76
2024/02/26 03:07:21;;;;;;;;;;;;;;;20.24;58.87;100422.66;7389373;19;1859;-77
2024/02/26 03:09:49;;;;;;;;;;;;;;;20.26;58.99;100421.50;7391740;19;1691;-77
2024/02/26 03:12:18;;;;;;;;;;;;;;;20.29;58.93;100428.41;7390948;19;1528;-77
2024/02/26 03:14:49;;;;;;;;;;;;;;;20.34;58.65;100425.28;7389660;19;1542;-76
2024/02/26 03:17:17;;;;;;;;;;;;;;;20.30;58.56;100426.56;7390525;19;1630;-76
2024/02/26 03:19:46;;;;;;;;;;;;;;;20.29;58.64;100423.03;7388314;19;1445;-76
2024/02/26 03:22:15;;;;;;;;;;;;;;;20.27;58.77;100419.66;7389273;19;1250;-77
2024/02/26 03:24:43;;;;;;;;;;;;;;;20.34;58.60;100422.59;7387228;19;1721;-76
2024/02/26 03:27:11;;;;;;;;;;;;;;;20.35;58.74;100426.94;7387698;19;1838;-76
2024/02/26 03:29:40;;;;;;;;;;;;;;;20.36;58.74;100429.47;7386744;19;1515;-77
2024/02/26 03:32:11;;;;;;;;;;;;;;;20.34;58.63;100431.47;7387597;19;1480;-77
2024/02/26 03:34:40;;;;;;;;;;;;;;;20.39;58.81;100433.69;7377367;19;1398;-76
2024/02/26 03:37:10;;;;;;;;;;;;;;;20.40;58.54;100419.28;7388595;19;1001;-77
2024/02/26 03:39:39;;;;;;;;;;;;;;;20.41;58.66;100421.81;7387917;19;1402;-77
2024/02/26 03:42:07;;;;;;;;;;;;;;;20.44;58.40;100415.28;7388886;19;1876;-77
2024/02/26 03:44:35;;;;;;;;;;;;;;;20.44;58.54;100420.66;7388255;19;1868;-77
2024/02/26 03:47:04;;;;;;;;;;;;;;;20.47;58.52;100425.72;7386679;19;1845;-77
2024/02/26 03:49:35;;;;;;;;;;;;;;;20.45;58.44;100416.97;7386241;19;1192;-77
2024/02/26 03:52:05;;;;;;;;;;;;;;;20.44;58.42;100416.13;7387682;19;1635;-77
2024/02/26 03:54:33;;;;;;;;;;;;;;;20.51;58.29;100421.72;7388687;19;1766;-76
2024/02/26 03:57:01;;;;;;;;;;;;;;;20.57;58.42;100434.56;7386276;19;1507;-77
2024/02/26 03:59:30;;;;;;;;;;;;;;;20.54;58.23;100428.66;7388369;19;1469;-77
2024/02/26 04:01:58;;;;;;;;;;;;;;;19.99;59.41;100426.91;7389202;19;1677;-77
2024/02/26 04:04:26;;;;;;;;;;;;;;;19.83;59.85;100433.75;7396044;19;1287;-77
2024/02/26 04:06:57;;;;;;;;;;;;;;;19.66;59.97;100421.97;7394484;19;1837;-77
2024/02/26 04:09:26;;;;;;;;;;;;;;;19.59;60.37;100430.75;7395361;19;1518;-76
2024/02/26 04:11:54;;;;;;;;;;;;;;;19.44;60.65;100425.88;7390788;19;1567;-77
2024/02/26 04:14:22;;;;;;;;;;;;;;;19.42;60.48;100435.06;7395496;19;1398;-77
2024/02/26 04:16:54;;;;;;;;;;;;;;;19.29;60.57;100424.63;7393953;19;1848;-76
2024/02/26 04:19:22;;;;;;;;;;;;;;;19.30;60.77;100425.47;7395877;19;1591;-76
2024/02/26 04:21:50;;;;;;;;;;;;;;;19.25;60.65;100432.13;7393203;19;1672;-76
2024/02/26 04:24:21;;;;;;;;;;;;;;;19.22;60.80;100445.81;7392376;19;1211;-76
2024/02/26 04:26:50;;;;;;;;;;;;;;;19.15;60.78;100438.50;7394575;19;1869;-76
2024/02/26 04:29:21;;;;;;;;;;;;;;;19.06;61.11;100424.16;7395975;19;1543;-76
2024/02/26 04:31:49;;;;;;;;;;;;;;;19.07;61.47;100442.75;7397196;19;1655;-77
2024/02/26 04:34:17;;;;;;;;;;;;;;;19.18;61.47;100451.59;7397128;19;1116;-77
2024/02/26 04:36:47;;;;;;;;;;;;;;;19.31;61.24;100444.09;7390807;19;1927;-77
2024/02/26 04:39:16;;;;;;;;;;;;;;;19.26;61.06;100438.34;7396860;19;1774;-77
2024/02/26 04:41:47;;;;;;;;;;;;;;;19.24;60.99;100451.06;7396553;19;1934;-77
2024/02/26 04:44:16;;;;;;;;;;;;;;;19.21;61.06;100427.19;7396773;19;1907;-77
2024/02/26 04:46:44;;;;;;;;;;;;;;;19.16;60.87;100434.81;7396023;19;1598;-77
2024/02/26 04:49:13;;;;;;;;;;;;;;;19.06;61.17;100432.19;7396416;19;1247;-77
2024/02/26 04:51:41;;;;;;;;;;;;;;;19.03;61.10;100441.34;7401005;19;1032;-77
2024/02/26 04:54:10;;;;;;;;;;;;;;;18.93;61.54;100435.16;7400444;19;1891;-77
2024/02/26 04:56:39;;;;;;;;;;;;;;;19.00;61.48;100441.63;7399865;19;1767;-78
2024/02/26 04:59:11;;;;;;;;;;;;;;;19.07;61.45;100453.47;7401343;19;1622;-77
2024/02/26 05:01:41;;;;;;;;;;;;;;;19.23;61.37;100457.38;7401353;19;1301;-77
2024/02/26 05:04:15;;;;;;;;;;;;;;;19.14;61.59;100439.47;7400760;19;1264;-77
2024/02/26 05:06:43;;;;;;;;;;;;;;;19.15;61.26;100459.94;7401461;19;1137;-77
2024/02/26 05:09:12;;;;;;;;;;;;;;;19.11;61.30;100463.91;7398974;19;1854;-76
2024/02/26 05:11:40;;;;;;;;;;;;;;;19.08;61.21;100459.69;7401776;19;1654;-77
2024/02/26 05:14:09;;;;;;;;;;;;;;;18.96;61.19;100456.31;7404898;19;1535;-76
2024/02/26 05:16:40;;;;;;;;;;;;;;;18.91;61.36;100469.28;7406173;19;1510;-76
2024/02/26 05:19:08;;;;;;;;;;;;;;;19.05;61.66;100460.78;7415151;19;1130;-76
2024/02/26 05:21:36;;;;;;;;;;;;;;;19.13;61.85;100491.41;7411168;19;1567;-76
2024/02/26 05:24:05;;;;;;;;;;;;;;;19.38;61.18;100472.03;7417924;19;1528;-77
2024/02/26 05:26:33;;;;;;;;;;;;;;;19.65;60.38;100465.84;7424624;19;1558;-75
2024/02/26 05:29:02;;;;;;;;;;;;;;;19.79;60.35;100461.88;7418959;19;1833;-76
2024/02/26 05:31:30;;;;;;;;;;;;;;;19.53;59.84;100474.25;7418426;19;1832;-76
2024/02/26 05:34:01;;;;;;;;;;;;;;;19.08;60.66;100473.94;7417175;19;1865;-76
2024/02/26 05:36:33;;;;;;;;;;;;;;;18.98;58.06;100473.09;7387339;19;1510;-74
2024/02/26 05:39:01;;;;;;;;;;;;;;;19.00;59.88;100478.28;7400634;19;1707;-75
2024/02/26 05:41:29;;;;;;;;;;;;;;;18.90;60.15;100480.13;7399568;19;1878;-74
2024/02/26 05:43:58;;;;;;;;;;;;;;;18.92;60.70;100492.44;7397702;19;1281;-75
2024/02/26 05:46:27;;;;;;;;;;;;;;;18.95;61.05;100491.28;7395119;19;1831;-75
2024/02/26 05:48:55;;;;;;;;;;;;;;;19.11;60.86;100493.38;7392533;19;1920;-75
2024/02/26 05:51:26;;;;;;;;;;;;;;;19.22;60.42;100493.25;7395053;19;1133;-75
2024/02/26 05:53:56;;;;;;;;;;;;;;;19.38;60.20;100482.75;7393357;19;1357;-75
2024/02/26 05:56:25;;;;;;;;;;;;;;;19.46;59.63;100492.75;7390508;19;1742;-75
2024/02/26 05:58:54;;;;;;;;;;;;;;;19.45;60.03;100499.09;7388416;19;1311;-75
2024/02/26 06:01:24;;;;;;;;;;;;;;;19.47;59.75;100518.56;7388633;19;1407;-75
2024/02/26 06:03:52;;;;;;;;;;;;;;;19.49;59.92;100505.88;7388036;19;1255;-76
2024/02/26 06:06:22;;;;;;;;;;;;;;;19.44;59.91;100503.63;7388843;19;1313;-75
2024/02/26 06:08:53;;;;;;;;;;;;;;;19.46;59.99;100519.59;7387147;19;1849;-75
2024/02/26 06:11:22;;;;;;;;;;;;;;;19.50;59.77;100523.66;7393501;19;1130;-76
2024/02/26 06:13:51;;;;;;;;;;;;;;;19.50;59.74;100506.69;7392183;19;1059;-76
2024/02/26 06:16:19;;;;;;;;;;;;;;;19.51;59.87;100541.44;7389303;19;1266;-75
2024/02/26 06:18:47;;;;;;;;;;;;;;;19.50;59.79;100522.78;7392812;19;1674;-75
2024/02/26 06:21:15;;;;;;;;;;;;;;;19.59;59.54;100532.66;7391624;19;1779;-76
2024/02/26 06:23:44;;;;;;;;;;;;;;;19.60;59.66;100534.38;7391833;19;1153;-76
2024/02/26 06:26:15;;;;;;;;;;;;;;;19.60;59.45;100523.66;7388238;19;1397;-76
2024/02/26 06:28:43;;;;;;;;;;;;;;;19.58;59.57;100536.34;7389492;19;1842;-75
2024/02/26 06:31:11;;;;;;;;;;;;;;;19.58;59.51;100541.72;7390822;19;1281;-75
2024/02/26 06:33:40;;;;;;;;;;;;;;;19.56;59.67;100527.59;7390510;19;1826;-75
2024/02/26 06:36:08;;;;;;;;;;;;;;;19.62;59.55;100533.22;7377976;19;1591;-76
2024/02/26 06:38:37;;;;;;;;;;;;;;;19.59;59.64;100538.88;7391320;19;1409;-75
2024/02/26 06:41:06;;;;;;;;;;;;;;;19.63;59.55;100539.44;7390572;19;1661;-75
2024/02/26 06:43:36;;;;;;;;;;;;;;;19.61;59.49;100536.03;7390024;19;1456;-75
2024/02/26 06:46:05;;;;;;;;;;;;;;;19.67;59.43;100535.47;7387094;19;1611;-76
2024/02/26 06:48:34;;;;;;;;;;;;;;;19.65;59.39;100540.97;7388139;19;1854;-75
2024/02/26 06:51:02;;;;;;;;;;;;;;;19.71;59.28;100557.47;7390657;19;1116;-76
2024/02/26 06:53:30;;;;;;;;;;;;;;;19.69;59.14;100544.22;7388238;19;1736;-76
2024/02/26 06:55:58;;;;;;;;;;;;;;;19.71;59.25;100563.72;7389848;19;1542;-76
2024/02/26 06:58:27;;;;;;;;;;;;;;;19.67;59.25;100543.50;7389478;19;1555;-76
2024/02/26 07:00:58;;;;;;;;;;;;;;;19.66;59.33;100557.94;7389000;19;1206;-76
2024/02/26 07:03:26;;;;;;;;;;;;;;;19.35;60.01;100550.06;7390173;19;1607;-76
2024/02/26 07:05:55;;;;;;;;;;;;;;;19.31;60.02;100551.34;7390155;19;1063;-75
2024/02/26 07:08:23;;;;;;;;;;;;;;;19.22;60.27;100549.53;7389800;19;1885;-75
2024/02/26 07:10:51;;;;;;;;;;;;;;;19.12;60.46;100560.25;7388969;19;1576;-76
2024/02/26 07:13:20;;;;;;;;;;;;;;;19.05;60.72;100557.28;7388974;19;1501;-75
2024/02/26 07:15:49;;;;;;;;;;;;;;;19.03;60.44;100564.63;7388274;19;1544;-75
2024/02/26 07:18:20;;;;;;;;;;;;;;;18.88;60.89;100549.97;7390113;19;1119;-76
2024/02/26 07:20:48;;;;;;;;;;;;;;;19.31;59.38;100561.22;7388152;19;1825;-76
2024/02/26 07:23:17;;;;;;;;;;;;;;;19.47;58.59;100532.81;7389469;19;1203;-76
2024/02/26 07:25:46;;;;;;;;;;;;;;;19.76;58.16;100556.09;7387301;19;1493;-76
2024/02/26 07:28:15;;;;;;;;;;;;;;;19.73;58.31;100534.91;7378514;19;1843;-76
2024/02/26 07:30:43;;;;;;;;;;;;;;;18.88;58.85;100445.47;7386993;19;1449;-76
2024/02/26 07:33:11;;;;;;;;;;;;;;;19.31;59.59;100550.50;7385223;19;1192;-76
2024/02/26 07:35:42;;;;;;;;;;;;;;;19.11;59.82;100545.16;7371261;19;1756;-75
2024/02/26 07:38:12;;;;;;;;;;;;;;;18.99;60.28;100547.13;7386426;19;1614;-75
2024/02/26 07:40:41;;;;;;;;;;;;;;;18.89;57.51;100551.63;7386006;19;2343;-75
2024/02/26 07:43:09;;;;;;;;;;;;;;;18.90;58.13;100542.63;7386130;19;1537;-75
2024/02/26 07:45:38;;;;;;;;;;;;;;;18.92;58.82;100547.81;7386637;19;1409;-75
2024/02/26 07:48:06;;;;;;;;;;;;;;;19.11;58.60;100547.00;7384431;19;1834;-75
2024/02/26 07:50:35;;;;;;;;;;;;;;;19.30;58.32;100538.06;7384194;19;1486;-76
2024/02/26 07:53:06;;;;;;;;;;;;;;;19.34;58.22;100559.13;7378853;19;1177;-75
2024/02/26 07:55:34;;;;;;;;;;;;;;;19.23;58.51;100545.84;7383677;19;1680;-76
2024/02/26 07:58:02;;;;;;;;;;;;;;;19.04;58.69;100544.03;7383236;19;2026;-75
2024/02/26 08:00:31;;;;;;;;;;;;;;;19.04;58.87;100550.25;7385864;19;1017;-75
2024/02/26 08:02:59;;;;;;;;;;;;;;;19.03;58.84;100537.81;7385137;19;1713;-75
2024/02/26 08:05:27;;;;;;;;;;;;;;;19.04;59.03;100526.13;7381739;19;1512;-75
2024/02/26 08:07:56;;;;;;;;;;;;;;;18.91;59.42;100525.53;7383516;19;1844;-76
2024/02/26 08:10:27;;;;;;;;;;;;;;;19.02;59.22;100541.50;7384162;19;1816;-76
2024/02/26 08:12:56;;;;;;;;;;;;;;;19.21;58.96;100531.75;7380678;19;1388;-74
2024/02/26 08:15:25;;;;;;;;;;;;;;;19.39;58.45;100538.06;7382302;19;1148;-75
2024/02/26 08:17:54;;;;;;;;;;;;;;;19.33;58.54;100538.63;7381616;19;1676;-75
2024/02/26 08:20:22;;;;;;;;;;;;;;;19.26;58.66;100537.53;7383633;19;1098;-75
2024/02/26 08:22:50;;;;;;;;;;;;;;;19.17;58.97;100533.84;7383997;19;1924;-75
2024/02/26 08:25:19;;;;;;;;;;;;;;;19.07;59.24;100539.22;7381032;19;1496;-75
2024/02/26 08:27:50;;;;;;;;;;;;;;;18.95;59.60;100528.78;7378059;19;1449;-75
2024/02/26 08:30:19;;;;;;;;;;;;;;;18.86;59.89;100525.97;7380188;19;1905;-75
2024/02/26 08:32:47;;;;;;;;;;;;;;;18.91;59.84;100546.97;7382688;19;1793;-76
2024/02/26 08:35:16;;;;;;;;;;;;;;;19.05;59.71;100522.44;7382823;19;1557;-75
2024/02/26 08:37:46;;;;;;;;;;;;;;;19.36;59.13;100526.78;7370632;19;1457;-75
2024/02/26 08:40:15;;;;;;;;;;;;;;;19.47;58.68;100531.97;7380255;19;1534;-75
2024/02/26 08:42:44;;;;;;;;;;;;;;;19.43;58.95;100527.91;7381303;19;1370;-75
2024/02/26 08:45:15;;;;;;;;;;;;;;;19.32;59.11;100533.41;7382974;19;1159;-76
2024/02/26 08:47:43;;;;;;;;;;;;;;;19.15;58.71;100540.34;7383277;19;2481;-75
2024/02/26 08:50:12;;;;;;;;;;;;;;;19.08;59.15;100538.25;7388697;19;1836;-75
2024/02/26 08:52:40;;;;;;;;;;;;;;;19.08;59.12;100530.22;7391308;19;1505;-76
2024/02/26 08:55:09;;;;;;;;;;;;;;;19.13;59.25;100526.25;7391651;19;1754;-76
2024/02/26 08:57:38;;;;;;;;;;;;;;;19.18;59.48;100537.38;7390001;19;1613;-75
2024/02/26 09:00:07;;;;;;;;;;;;;;;19.10;59.64;100516.66;7392417;19;1717;-75
2024/02/26 09:02:38;;;;;;;;;;;;;;;19.23;59.53;100535.13;7392289;19;1674;-76
2024/02/26 09:05:07;;;;;;;;;;;;;;;19.64;58.51;100546.50;7389389;19;1465;-76
2024/02/26 09:07:36;;;;;;;;;;;;;;;19.85;57.87;100535.56;7391581;19;1900;-75
2024/02/26 09:10:04;;;;;;;;;;;;;;;19.68;58.38;100527.28;7388023;19;1853;-75
2024/02/26 09:12:32;;;;;;;;;;;;;;;19.57;58.65;100523.91;7389126;19;1592;-76
2024/02/26 09:15:01;;;;;;;;;;;;;;;19.45;58.99;100532.13;7391430;19;1268;-76
2024/02/26 09:17:29;;;;;;;;;;;;;;;19.32;59.30;100536.09;7389746;19;1931;-76
2024/02/26 09:20:00;;;;;;;;;;;;;;;19.23;59.38;100513.69;7390221;19;1466;-76
2024/02/26 09:22:28;;;;;;;;;;;;;;;19.22;59.51;100530.78;7387463;19;1648;-76
2024/02/26 09:24:57;;;;;;;;;;;;;;;19.20;59.53;100527.34;7391008;19;1516;-76
2024/02/26 09:27:25;;;;;;;;;;;;;;;19.13;59.65;100531.63;7388971;19;1496;-76
2024/02/26 09:29:53;;;;;;;;;;;;;;;19.12;59.63;100525.41;7389216;19;1863;-76
2024/02/26 09:32:22;;;;;;;;;;;;;;;19.12;59.62;100519.19;7389152;19;1508;-76
2024/02/26 09:34:50;;;;;;;;;;;;;;;19.22;59.87;100528.09;7389319;19;1504;-76
2024/02/26 09:37:21;;;;;;;;;;;;;;;19.69;58.23;100520.06;7378019;19;1267;-76
2024/02/26 09:39:49;;;;;;;;;;;;;;;19.97;57.58;100528.19;7391356;19;1506;-78
2024/02/26 09:42:20;;;;;;;;;;;;;;;19.81;57.71;100507.34;7386137;19;1165;-76
2024/02/26 09:44:52;;;;;;;;;;;;;;;19.66;58.12;100512.31;7389355;19;1500;-75
2024/02/26 09:47:20;;;;;;;;;;;;;;;19.57;58.66;100513.19;7391303;19;1809;-76
2024/02/26 09:49:50;;;;;;;;;;;;;;;19.51;58.94;100500.38;7387761;19;1860;-76
2024/02/26 09:52:22;;;;;;;;;;;;;;;19.45;58.93;100526.75;7393312;19;1488;-76
2024/02/26 09:54:51;;;;;;;;;;;;;;;19.42;59.02;100510.13;7390764;19;1959;-76
2024/02/26 09:57:19;;;;;;;;;;;;;;;19.37;59.06;100518.59;7389282;19;1553;-76
2024/02/26 09:59:50;;;;;;;;;;;;;;;19.38;58.26;100506.06;7386551;19;1824;-76
2024/02/26 10:02:20;;;;;;;;;;;;;;;19.33;58.40;100494.91;7385762;19;1472;-77
2024/02/26 10:04:50;;;;;;;;;;;;;;;19.33;58.65;100506.47;7388647;19;1247;-77
2024/02/26 10:07:21;;;;;;;;;;;;;;;19.70;57.36;100489.59;7388595;19;1434;-76
2024/02/26 10:09:50;;;;;;;;;;;;;;;20.13;56.00;100480.06;7386593;19;1842;-77
2024/02/26 10:12:19;;;;;;;;;;;;;;;20.01;55.77;100483.97;7388400;19;1464;-76
2024/02/26 10:14:47;;;;;;;;;;;;;;;19.79;54.58;100491.38;7390099;19;1378;-77
2024/02/26 10:17:15;;;;;;;;;;;;;;;19.63;55.33;100497.34;7389186;19;1528;-77
2024/02/26 10:19:43;;;;;;;;;;;;;;;19.45;56.93;100499.94;7390281;19;1516;-76
2024/02/26 10:22:12;;;;;;;;;;;;;;;19.42;56.94;100478.78;7390019;19;1429;-75
2024/02/26 10:24:43;;;;;;;;;;;;;;;19.73;56.67;100491.16;7389011;19;1488;-76
2024/02/26 10:27:11;;;;;;;;;;;;;;;20.35;54.99;100475.28;7388710;19;1595;-76
2024/02/26 10:29:41;;;;;;;;;;;;;;;20.67;54.38;100472.09;7387888;19;1853;-75
2024/02/26 10:32:11;;;;;;;;;;;;;;;21.03;53.47;100458.66;7388492;19;1518;-76
2024/02/26 10:34:41;;;;;;;;;;;;;;;21.11;53.32;100460.53;7377756;19;1563;-75
2024/02/26 10:37:10;;;;;;;;;;;;;;;20.81;54.05;100454.59;7376663;19;1531;-75
2024/02/26 10:39:39;;;;;;;;;;;;;;;20.43;55.17;100468.19;7389265;19;1477;-75
2024/02/26 10:42:15;;;;;;;;;;;;;;;20.45;55.62;100449.19;7387499;19;2001;-76
2024/02/26 10:44:44;;;;;;;;;;;;;;;20.79;54.91;100443.16;7386028;19;1851;-76
2024/02/26 10:47:13;;;;;;;;;;;;;;;21.02;54.34;100467.72;7386632;19;1508;-76
2024/02/26 10:49:47;;;;;;;;;;;;;;;21.13;54.12;100459.41;7384663;19;1861;-75
2024/02/26 10:52:16;;;;;;;;;;;;;;;21.29;53.26;100447.91;7386541;19;1567;-76
2024/02/26 10:54:47;;;;;;;;;;;;;;;21.04;54.35;100453.09;7387461;19;1913;-75
2024/02/26 10:57:18;;;;;;;;;;;;;;;20.58;55.57;100455.03;7388454;19;1460;-75
2024/02/26 10:59:46;;;;;;;;;;;;;;;20.63;55.10;100444.72;7379310;19;1577;-75
2024/02/26 11:02:16;;;;;;;;;;;;;;;20.92;54.52;100467.81;7382697;19;1837;-76
2024/02/26 11:04:45;;;;;;;;;;;;;;;21.29;53.73;100453.28;7384124;19;1413;-75
2024/02/26 11:07:13;;;;;;;;;;;;;;;21.49;53.39;100445.88;7385113;19;1828;-74
2024/02/26 11:09:46;;;;;;;;;;;;;;;21.45;53.57;100441.81;7383542;19;1872;-75
2024/02/26 11:12:15;;;;;;;;;;;;;;;21.40;53.51;100463.78;7385278;19;1807;-76
2024/02/26 11:14:46;;;;;;;;;;;;;;;21.35;53.72;100451.81;7386906;19;1118;-76
2024/02/26 11:17:16;;;;;;;;;;;;;;;21.33;53.70;100446.59;7383350;19;1554;-75
2024/02/26 11:19:45;;;;;;;;;;;;;;;21.26;53.88;100445.53;7385620;19;1141;-75
2024/02/26 11:22:14;;;;;;;;;;;;;;;21.21;53.87;100439.81;7383813;19;1828;-76
2024/02/26 11:24:42;;;;;;;;;;;;;;;21.30;53.59;100438.84;7387050;19;1468;-76
2024/02/26 11:27:13;;;;;;;;;;;;;;;21.33;53.78;100432.28;7387397;19;1824;-76
2024/02/26 11:29:42;;;;;;;;;;;;;;;21.45;53.52;100452.59;7384204;19;1884;-76
2024/02/26 11:32:14;;;;;;;;;;;;;;;21.36;53.98;100442.75;7389317;19;1559;-75
2024/02/26 11:34:51;;;;;;;;;;;;;;;21.25;54.21;100443.84;7396646;19;1498;-75
2024/02/26 11:37:19;;;;;;;;;;;;;;;21.24;54.04;100432.25;7379043;19;1904;-76
2024/02/26 11:39:48;;;;;;;;;;;;;;;21.17;54.20;100439.28;7391958;19;1631;-76
2024/02/26 11:42:18;;;;;;;;;;;;;;;21.26;54.11;100432.91;7395576;19;971;-76
2024/02/26 11:44:46;;;;;;;;;;;;;;;21.25;54.14;100436.63;7392006;19;1495;-75
2024/02/26 11:47:22;;;;;;;;;;;;;;;21.23;54.28;100437.78;7393440;19;1404;-75
2024/02/26 11:49:50;;;;;;;;;;;;;;;21.29;54.10;100431.78;7395724;19;1854;-75
2024/02/26 11:52:19;;;;;;;;;;;;;;;21.31;54.05;100419.03;7398160;19;1027;-75
2024/02/26 11:54:48;;;;;;;;;;;;;;;21.43;53.73;100425.84;7398092;19;1946;-75
2024/02/26 11:57:23;;;;;;;;;;;;;;;21.47;53.85;100422.81;7399574;19;1089;-75
2024/02/26 11:59:51;;;;;;;;;;;;;;;21.51;53.78;100413.44;7412718;19;1421;-75
2024/02/26 12:02:34;;;;;;;;;;;;;;;21.53;53.92;100417.66;7401202;19;1746;-75
2024/02/26 12:05:08;;;;;;;;;;;;;;;21.82;53.13;100402.97;7405938;19;1822;-75
2024/02/26 12:07:37;;;;;;;;;;;;;;;21.94;53.06;100401.66;7405080;19;1512;-76
2024/02/26 12:10:34;;;;;;;;;;;;;;;21.96;52.86;100423.88;7414886;19;1855;-75
2024/02/26 12:13:03;;;;;;;;;;;;;;;21.84;53.35;100415.28;7396511;19;1785;-75
2024/02/26 12:15:35;;;;;;;;;;;;;;;21.77;53.51;100400.75;7406009;19;1053;-75
2024/02/26 12:18:07;;;;;;;;;;;;;;;21.68;53.53;100390.97;7390577;19;1853;-76
2024/02/26 12:20:38;;;;;;;;;;;;;;;21.64;53.99;100397.69;7388452;19;1763;-75
2024/02/26 12:23:07;;;;;;;;;;;;;;;21.59;53.81;100397.34;7394427;19;1828;-74
2024/02/26 12:25:36;;;;;;;;;;;;;;;21.58;53.83;100392.94;7396030;19;1828;-75
2024/02/26 12:28:04;;;;;;;;;;;;;;;21.67;53.67;100392.00;7395023;19;1827;-75
2024/02/26 12:30:33;;;;;;;;;;;;;;;21.80;53.64;100388.81;7395168;19;1875;-76
2024/02/26 12:33:02;;;;;;;;;;;;;;;21.83;53.36;100392.03;7394463;19;1793;-75
2024/02/26 12:35:31;;;;;;;;;;;;;;;21.74;53.41;100387.63;7395393;19;1338;-75
2024/02/26 12:38:03;;;;;;;;;;;;;;;21.79;53.62;100389.84;7377791;19;1661;-75
2024/02/26 12:40:32;;;;;;;;;;;;;;;21.70;53.68;100375.50;7394383;19;1473;-76
2024/02/26 12:43:01;;;;;;;;;;;;;;;21.65;54.02;100377.84;7394948;19;1670;-75
2024/02/26 12:45:30;;;;;;;;;;;;;;;21.64;53.92;100376.97;7392254;19;1411;-75
2024/02/26 12:47:58;;;;;;;;;;;;;;;21.65;54.01;100373.31;7396023;19;1089;-76
2024/02/26 12:50:27;;;;;;;;;;;;;;;21.63;54.23;100363.72;7392669;19;2182;-75
2024/02/26 12:52:55;;;;;;;;;;;;;;;21.65;53.98;100372.47;7389972;19;1840;-75
2024/02/26 12:55:27;;;;;;;;;;;;;;;21.77;53.71;100360.41;7394791;19;1532;-76
2024/02/26 12:57:55;;;;;;;;;;;;;;;21.85;53.54;100390.03;7395353;19;991;-75